createdAt,value
2019-06-27T00:00:05.805Z,45.50
2019-06-27T00:01:08.560Z,45.70
2019-06-27T00:02:10.760Z,45.60
2019-06-27T00:03:05.768Z,45.60
2019-06-27T00:04:08.433Z,45.60
2019-06-27T00:05:05.505Z,45.60
2019-06-27T00:06:05.786Z,45.60
2019-06-27T00:07:08.393Z,45.70
2019-06-27T00:08:05.585Z,45.70
2019-06-27T00:09:08.399Z,45.80
2019-06-27T00:10:07.921Z,45.80
2019-06-27T00:11:08.477Z,46.00
2019-06-27T00:12:08.212Z,46.00
2019-06-27T00:13:05.276Z,46.00
2019-06-27T00:14:08.031Z,46.00
2019-06-27T00:15:05.007Z,46.00
2019-06-27T00:16:07.662Z,45.90
2019-06-27T00:17:05.680Z,45.90
2019-06-27T00:18:05.949Z,45.90
2019-06-27T00:19:05.167Z,46.00
2019-06-27T00:20:07.816Z,46.10
2019-06-27T00:21:08.334Z,46.10
2019-06-27T00:22:05.602Z,46.10
2019-06-27T00:23:05.693Z,46.10
2019-06-27T00:24:05.804Z,46.40
2019-06-27T00:25:08.436Z,46.20
2019-06-27T00:26:07.947Z,46.30
2019-06-27T00:27:08.587Z,46.30
2019-06-27T00:28:05.625Z,46.30
2019-06-27T00:29:05.752Z,46.20
2019-06-27T00:30:13.196Z,46.10
2019-06-27T00:31:08.898Z,45.70
2019-06-27T00:32:08.363Z,45.90
2019-06-27T00:33:07.862Z,46.10
2019-06-27T00:34:05.875Z,46.10
2019-06-27T00:35:05.011Z,46.20
2019-06-27T00:36:07.991Z,45.70
2019-06-27T00:37:04.976Z,45.70
2019-06-27T00:38:12.647Z,45.70
2019-06-27T00:39:05.698Z,45.70
2019-06-27T00:40:08.337Z,45.80
2019-06-27T00:41:05.334Z,45.90
2019-06-27T00:42:05.440Z,45.90
2019-06-27T00:43:05.724Z,46.10
2019-06-27T00:44:05.924Z,45.90
2019-06-27T00:45:05.029Z,46.10
2019-06-27T00:46:07.602Z,46.30
2019-06-27T00:47:05.523Z,46.40
2019-06-27T00:48:08.138Z,46.30
2019-06-27T00:49:07.630Z,46.40
2019-06-27T00:50:05.709Z,46.40
2019-06-27T00:51:05.461Z,46.30
2019-06-27T00:52:05.682Z,46.50
2019-06-27T00:53:05.752Z,46.50
2019-06-27T00:54:08.343Z,46.30
2019-06-27T00:55:07.841Z,46.30
2019-06-27T00:56:05.870Z,46.30
2019-06-27T00:57:14.842Z,46.30
2019-06-27T00:58:05.337Z,46.50
2019-06-27T00:59:07.995Z,46.60
2019-06-27T01:00:07.480Z,46.70
2019-06-27T01:01:08.199Z,46.20
2019-06-27T01:02:05.286Z,46.20
2019-06-27T01:03:05.433Z,46.50
2019-06-27T01:04:08.086Z,46.60
2019-06-27T01:05:05.127Z,46.70
2019-06-27T01:06:07.761Z,46.80
2019-06-27T01:07:05.698Z,46.80
2019-06-27T01:08:05.784Z,46.60
2019-06-27T01:09:08.578Z,46.40
2019-06-27T01:10:08.110Z,46.30
2019-06-27T01:11:05.084Z,46.30
2019-06-27T01:12:05.298Z,46.20
2019-06-27T01:13:05.561Z,46.10
2019-06-27T01:14:08.389Z,46.10
2019-06-27T01:15:05.458Z,46.10
2019-06-27T01:16:08.170Z,45.30
2019-06-27T01:17:05.172Z,45.30
2019-06-27T01:18:05.329Z,45.30
2019-06-27T01:19:05.458Z,45.00
2019-06-27T01:20:05.592Z,44.80
2019-06-27T01:21:05.822Z,44.80
2019-06-27T01:22:07.644Z,44.40
2019-06-27T01:23:05.719Z,44.40
2019-06-27T01:24:08.525Z,44.50
2019-06-27T01:25:08.319Z,44.50
2019-06-27T01:26:05.331Z,44.50
2019-06-27T01:27:08.281Z,44.40
2019-06-27T01:28:05.334Z,44.30
2019-06-27T01:29:07.906Z,44.10
2019-06-27T01:30:05.943Z,44.10
2019-06-27T01:31:10.279Z,44.40
2019-06-27T01:32:05.380Z,44.40
2019-06-27T01:33:05.567Z,44.40
2019-06-27T01:34:08.295Z,44.40
2019-06-27T01:35:07.937Z,44.40
2019-06-27T01:36:11.115Z,44.50
2019-06-27T01:37:07.626Z,44.60
2019-06-27T01:38:05.618Z,44.60
2019-06-27T01:39:05.714Z,44.60
2019-06-27T01:40:05.807Z,44.90
2019-06-27T01:41:07.575Z,44.90
2019-06-27T01:42:05.665Z,45.00
2019-06-27T01:43:05.824Z,45.00
2019-06-27T01:44:05.897Z,45.10
2019-06-27T01:45:05.017Z,45.10
2019-06-27T01:46:05.274Z,45.10
2019-06-27T01:47:10.623Z,45.60
2019-06-27T01:48:08.235Z,45.40
2019-06-27T01:49:05.336Z,45.40
2019-06-27T01:50:08.051Z,45.60
2019-06-27T01:51:07.522Z,45.70
2019-06-27T01:52:08.146Z,45.90
2019-06-27T01:53:10.161Z,46.00
2019-06-27T01:54:07.614Z,45.90
2019-06-27T01:55:05.591Z,46.00
2019-06-27T01:56:05.678Z,46.00
2019-06-27T01:57:10.914Z,46.00
2019-06-27T01:58:08.515Z,46.20
2019-06-27T01:59:05.499Z,46.10
2019-06-27T02:00:05.628Z,46.40
2019-06-27T02:01:05.822Z,46.20
2019-06-27T02:02:04.963Z,46.10
2019-06-27T02:03:05.236Z,46.00
2019-06-27T02:04:05.282Z,46.10
2019-06-27T02:05:05.447Z,45.50
2019-06-27T02:06:05.508Z,45.20
2019-06-27T02:07:08.167Z,45.60
2019-06-27T02:08:07.740Z,45.50
2019-06-27T02:09:05.700Z,45.50
2019-06-27T02:10:05.885Z,45.60
2019-06-27T02:11:04.961Z,45.50
2019-06-27T02:12:05.048Z,45.70
2019-06-27T02:13:07.828Z,45.70
2019-06-27T02:14:05.817Z,45.70
2019-06-27T02:15:08.444Z,45.90
2019-06-27T02:16:08.290Z,45.70
2019-06-27T02:17:05.417Z,45.80
2019-06-27T02:18:05.488Z,45.70
2019-06-27T02:19:05.643Z,45.70
2019-06-27T02:20:08.302Z,45.40
2019-06-27T02:21:10.354Z,45.40
2019-06-27T02:22:07.852Z,45.30
2019-06-27T02:23:05.797Z,45.40
2019-06-27T02:24:05.916Z,45.40
2019-06-27T02:25:05.107Z,45.50
2019-06-27T02:26:05.230Z,45.50
2019-06-27T02:27:10.404Z,45.50
2019-06-27T02:28:05.399Z,45.50
2019-06-27T02:29:05.594Z,45.40
2019-06-27T02:30:05.801Z,45.50
2019-06-27T02:31:05.964Z,45.40
2019-06-27T02:32:05.169Z,45.40
2019-06-27T02:33:05.516Z,45.50
2019-06-27T02:34:07.607Z,45.60
2019-06-27T02:35:05.754Z,45.70
2019-06-27T02:36:08.428Z,45.60
2019-06-27T02:37:07.967Z,45.60
2019-06-27T02:38:07.527Z,45.60
2019-06-27T02:39:08.231Z,45.70
2019-06-27T02:40:05.287Z,45.70
2019-06-27T02:41:05.415Z,45.50
2019-06-27T02:42:08.011Z,45.60
2019-06-27T02:43:04.990Z,45.60
2019-06-27T02:44:05.178Z,45.50
2019-06-27T02:45:05.296Z,45.60
2019-06-27T02:46:08.532Z,45.60
2019-06-27T02:47:05.701Z,45.60
2019-06-27T02:48:05.896Z,45.50
2019-06-27T02:49:05.126Z,45.60
2019-06-27T02:50:05.212Z,45.60
2019-06-27T02:51:05.401Z,45.60
2019-06-27T02:52:08.117Z,45.50
2019-06-27T02:53:12.804Z,45.20
2019-06-27T02:54:05.860Z,45.20
2019-06-27T02:55:07.542Z,45.20
2019-06-27T02:56:05.611Z,45.20
2019-06-27T02:57:05.719Z,45.20
2019-06-27T02:58:31.490Z,45.20
2019-06-27T02:59:05.040Z,45.20
2019-06-27T03:00:07.836Z,45.20
2019-06-27T03:01:08.498Z,45.20
2019-06-27T03:02:05.765Z,45.20
2019-06-27T03:03:12.594Z,45.20
2019-06-27T03:04:05.867Z,45.20
2019-06-27T03:05:05.054Z,45.20
2019-06-27T03:06:05.193Z,45.20
2019-06-27T03:07:05.283Z,45.10
2019-06-27T03:08:08.052Z,45.20
2019-06-27T03:09:07.593Z,45.20
2019-06-27T03:10:05.607Z,45.20
2019-06-27T03:11:05.926Z,45.20
2019-06-27T03:12:07.618Z,45.20
2019-06-27T03:13:08.371Z,45.20
2019-06-27T03:14:05.408Z,45.20
2019-06-27T03:15:05.497Z,45.00
2019-06-27T03:16:08.188Z,44.80
2019-06-27T03:17:07.910Z,44.90
2019-06-27T03:18:05.140Z,44.80
2019-06-27T03:19:07.787Z,44.80
2019-06-27T03:20:05.788Z,44.80
2019-06-27T03:21:06.062Z,44.80
2019-06-27T03:22:06.714Z,44.70
2019-06-27T03:23:08.397Z,44.70
2019-06-27T03:24:10.572Z,44.40
2019-06-27T03:25:08.156Z,44.50
2019-06-27T03:26:07.668Z,44.50
2019-06-27T03:27:05.662Z,44.40
2019-06-27T03:28:05.828Z,44.00
2019-06-27T03:29:04.971Z,44.00
2019-06-27T03:30:05.219Z,44.10
2019-06-27T03:31:08.015Z,44.20
2019-06-27T03:32:07.631Z,44.30
2019-06-27T03:33:05.693Z,44.30
2019-06-27T03:34:13.551Z,44.50
2019-06-27T03:35:05.559Z,44.40
2019-06-27T03:36:05.678Z,44.40
2019-06-27T03:37:05.825Z,44.40
2019-06-27T03:38:05.031Z,44.10
2019-06-27T03:39:05.239Z,43.90
2019-06-27T03:40:07.832Z,44.00
2019-06-27T03:41:05.775Z,44.00
2019-06-27T03:42:05.934Z,43.90
2019-06-27T03:43:05.068Z,43.90
2019-06-27T03:44:07.880Z,43.70
2019-06-27T03:45:05.912Z,43.70
2019-06-27T03:46:08.211Z,43.30
2019-06-27T03:47:07.965Z,42.80
2019-06-27T03:48:05.206Z,42.80
2019-06-27T03:49:05.346Z,42.80
2019-06-27T03:50:10.509Z,42.80
2019-06-27T03:51:05.527Z,42.80
2019-06-27T03:52:05.611Z,42.70
2019-06-27T03:53:08.253Z,42.50
2019-06-27T03:54:07.806Z,42.10
2019-06-27T03:55:05.869Z,42.10
2019-06-27T03:56:04.971Z,42.30
2019-06-27T03:57:05.091Z,42.50
2019-06-27T03:58:05.280Z,42.40
2019-06-27T03:59:13.776Z,42.40
2019-06-27T04:00:05.098Z,42.30
2019-06-27T04:01:07.957Z,42.50
2019-06-27T04:02:05.075Z,42.40
2019-06-27T04:03:07.751Z,41.90
2019-06-27T04:04:05.802Z,41.90
2019-06-27T04:05:07.529Z,41.30
2019-06-27T04:06:08.329Z,41.20
2019-06-27T04:07:07.944Z,41.20
2019-06-27T04:08:06.007Z,41.20
2019-06-27T04:09:05.179Z,40.90
2019-06-27T04:10:07.974Z,40.00
2019-06-27T04:11:04.955Z,40.00
2019-06-27T04:12:05.045Z,40.00
2019-06-27T04:13:07.779Z,40.20
2019-06-27T04:14:05.923Z,40.30
2019-06-27T04:15:07.742Z,39.90
2019-06-27T04:16:08.391Z,39.90
2019-06-27T04:17:08.112Z,39.90
2019-06-27T04:18:07.758Z,39.20
2019-06-27T04:19:05.871Z,39.20
2019-06-27T04:20:05.017Z,39.20
2019-06-27T04:21:05.281Z,39.10
2019-06-27T04:22:05.602Z,38.60
2019-06-27T04:23:05.859Z,38.30
2019-06-27T04:24:04.999Z,38.00
2019-06-27T04:25:08.025Z,37.90
2019-06-27T04:26:05.138Z,37.90
2019-06-27T04:27:05.340Z,37.90
2019-06-27T04:28:05.560Z,37.80
2019-06-27T04:29:05.631Z,37.90
2019-06-27T04:30:08.526Z,37.90
2019-06-27T04:31:05.524Z,37.90
2019-06-27T04:32:05.742Z,38.00
2019-06-27T04:33:08.401Z,37.50
2019-06-27T04:34:05.550Z,37.50
2019-06-27T04:35:05.830Z,37.40
2019-06-27T04:36:04.994Z,37.10
2019-06-27T04:37:05.115Z,36.80
2019-06-27T04:38:07.719Z,36.70
2019-06-27T04:39:08.369Z,36.30
2019-06-27T04:40:05.536Z,36.30
2019-06-27T04:41:08.331Z,36.50
2019-06-27T04:42:07.905Z,36.60
2019-06-27T04:43:06.747Z,36.60
2019-06-27T04:44:08.472Z,36.10
2019-06-27T04:45:08.081Z,35.50
2019-06-27T04:46:07.554Z,35.40
2019-06-27T04:47:08.141Z,35.50
2019-06-27T04:48:05.356Z,35.50
2019-06-27T04:49:05.485Z,35.50
2019-06-27T04:50:07.750Z,35.30
2019-06-27T04:51:06.005Z,35.30
2019-06-27T04:52:07.636Z,34.70
2019-06-27T04:53:08.161Z,34.80
2019-06-27T04:54:07.820Z,35.10
2019-06-27T04:55:06.060Z,35.10
2019-06-27T04:56:07.729Z,35.00
2019-06-27T04:57:05.790Z,35.00
2019-06-27T04:58:06.075Z,34.50
2019-06-27T04:59:05.328Z,34.30
2019-06-27T05:00:08.025Z,34.10
2019-06-27T05:01:07.595Z,34.30
2019-06-27T05:02:05.484Z,34.30
2019-06-27T05:03:08.060Z,33.10
2019-06-27T05:04:10.190Z,33.00
2019-06-27T05:05:13.009Z,33.20
2019-06-27T05:06:05.071Z,33.20
2019-06-27T05:07:05.498Z,33.30
2019-06-27T05:08:15.033Z,32.70
2019-06-27T05:09:07.739Z,32.30
2019-06-27T05:10:05.868Z,32.30
2019-06-27T05:11:07.579Z,31.90
2019-06-27T05:12:10.721Z,32.00
2019-06-27T05:13:07.876Z,32.70
2019-06-27T05:14:11.037Z,32.40
2019-06-27T05:15:05.015Z,32.40
2019-06-27T05:16:08.257Z,31.50
2019-06-27T05:17:05.333Z,31.60
2019-06-27T05:18:05.483Z,31.90
2019-06-27T05:19:13.405Z,31.50
2019-06-27T05:20:08.003Z,31.90
2019-06-27T05:21:07.515Z,32.60
2019-06-27T05:22:05.663Z,32.60
2019-06-27T05:23:05.891Z,33.00
2019-06-27T05:24:07.930Z,32.80
2019-06-27T05:25:06.020Z,32.80
2019-06-27T05:26:07.603Z,33.00
2019-06-27T05:27:05.615Z,33.00
2019-06-27T05:28:08.313Z,32.40
2019-06-27T05:29:07.882Z,32.30
2019-06-27T05:30:10.761Z,32.30
2019-06-27T05:31:08.541Z,33.00
2019-06-27T05:32:05.523Z,33.00
2019-06-27T05:33:05.803Z,33.00
2019-06-27T05:34:08.419Z,33.50
2019-06-27T05:35:07.873Z,33.50
2019-06-27T05:36:05.900Z,33.50
2019-06-27T05:37:07.531Z,33.80
2019-06-27T05:38:05.496Z,33.80
2019-06-27T05:39:05.650Z,34.20
2019-06-27T05:40:08.436Z,35.00
2019-06-27T05:41:08.129Z,34.90
2019-06-27T05:42:05.166Z,34.90
2019-06-27T05:43:05.321Z,34.90
2019-06-27T05:44:05.512Z,35.10
2019-06-27T05:45:05.646Z,35.00
2019-06-27T05:46:07.776Z,34.30
2019-06-27T05:47:05.765Z,34.20
2019-06-27T05:48:08.489Z,34.30
2019-06-27T05:49:05.490Z,34.20
2019-06-27T05:50:08.162Z,34.10
2019-06-27T05:51:05.185Z,34.10
2019-06-27T05:52:05.266Z,34.20
2019-06-27T05:53:12.953Z,34.30
2019-06-27T05:54:08.590Z,34.00
2019-06-27T05:55:05.604Z,34.00
2019-06-27T05:56:08.244Z,34.00
2019-06-27T05:57:05.318Z,34.00
2019-06-27T05:58:05.645Z,34.10
2019-06-27T05:59:13.571Z,34.50
2019-06-27T06:00:29.112Z,34.80
2019-06-27T06:01:08.143Z,35.00
2019-06-27T06:02:05.170Z,35.00
2019-06-27T06:03:05.241Z,34.90
2019-06-27T06:04:05.455Z,34.90
2019-06-27T06:05:08.231Z,34.80
2019-06-27T06:06:05.337Z,34.80
2019-06-27T06:07:08.155Z,34.30
2019-06-27T06:08:05.165Z,34.30
2019-06-27T06:09:05.319Z,34.10
2019-06-27T06:10:05.491Z,34.40
2019-06-27T06:11:05.660Z,34.50
2019-06-27T06:12:07.503Z,34.90
2019-06-27T06:13:08.063Z,34.70
2019-06-27T06:14:07.655Z,34.60
2019-06-27T06:15:05.753Z,34.60
2019-06-27T06:16:06.019Z,34.70
2019-06-27T06:17:07.748Z,33.70
2019-06-27T06:18:05.717Z,33.60
2019-06-27T06:19:05.929Z,33.60
2019-06-27T06:20:05.020Z,32.90
2019-06-27T06:21:08.203Z,32.00
2019-06-27T06:22:05.326Z,31.90
2019-06-27T06:23:05.458Z,31.50
2019-06-27T06:24:05.568Z,31.80
2019-06-27T06:25:08.198Z,32.40
2019-06-27T06:26:05.288Z,32.40
2019-06-27T06:27:05.484Z,32.40
2019-06-27T06:28:05.665Z,32.50
2019-06-27T06:29:08.258Z,31.60
2019-06-27T06:30:05.320Z,31.60
2019-06-27T06:31:05.462Z,31.50
2019-06-27T06:32:05.609Z,31.70
2019-06-27T06:33:08.402Z,31.70
2019-06-27T06:34:05.460Z,31.80
2019-06-27T06:35:08.326Z,31.70
2019-06-27T06:36:05.470Z,31.70
2019-06-27T06:37:08.607Z,31.50
2019-06-27T06:38:05.815Z,31.50
2019-06-27T06:39:05.923Z,31.70
2019-06-27T06:40:07.695Z,31.70
2019-06-27T06:41:05.869Z,31.70
2019-06-27T06:42:10.118Z,31.90
2019-06-27T06:43:07.709Z,32.40
2019-06-27T06:44:08.350Z,32.90
2019-06-27T06:45:05.365Z,32.90
2019-06-27T06:46:05.519Z,32.70
2019-06-27T06:47:05.722Z,31.60
2019-06-27T06:48:08.486Z,31.40
2019-06-27T06:49:05.498Z,31.40
2019-06-27T06:50:13.389Z,31.40
2019-06-27T06:51:08.048Z,31.20
2019-06-27T06:52:07.596Z,31.20
2019-06-27T06:53:05.631Z,31.20
2019-06-27T06:54:05.778Z,31.30
2019-06-27T06:55:06.044Z,31.50
2019-06-27T06:56:05.208Z,31.40
2019-06-27T06:57:08.002Z,30.70
2019-06-27T06:58:05.170Z,30.70
2019-06-27T06:59:12.924Z,30.70
2019-06-27T07:00:06.078Z,30.40
2019-06-27T07:01:05.293Z,30.10
2019-06-27T07:02:08.054Z,29.90
2019-06-27T07:03:05.010Z,30.00
2019-06-27T07:04:05.151Z,30.10
2019-06-27T07:05:07.854Z,29.70
2019-06-27T07:06:05.954Z,29.80
2019-06-27T07:07:05.101Z,29.10
2019-06-27T07:08:05.316Z,28.10
2019-06-27T07:09:05.543Z,28.10
2019-06-27T07:10:08.311Z,28.30
2019-06-27T07:11:08.114Z,28.50
2019-06-27T07:12:05.330Z,28.50
2019-06-27T07:13:05.550Z,28.10
2019-06-27T07:14:06.144Z,28.50
2019-06-27T07:15:05.327Z,29.00
2019-06-27T07:16:06.051Z,29.20
2019-06-27T07:17:05.208Z,28.90
2019-06-27T07:18:05.586Z,29.00
2019-06-27T07:19:05.731Z,29.20
2019-06-27T07:20:06.110Z,28.80
2019-06-27T07:21:07.852Z,29.10
2019-06-27T07:22:05.830Z,29.20
2019-06-27T07:23:05.051Z,28.40
2019-06-27T07:24:05.369Z,28.20
2019-06-27T07:25:05.733Z,28.30
2019-06-27T07:26:06.004Z,28.60
2019-06-27T07:27:05.225Z,29.00
2019-06-27T07:28:07.951Z,29.10
2019-06-27T07:29:11.120Z,29.40
2019-06-27T07:30:07.701Z,29.10
2019-06-27T07:31:18.501Z,29.10
2019-06-27T07:32:08.219Z,27.40
2019-06-27T07:33:05.356Z,27.30
2019-06-27T07:34:08.025Z,26.70
2019-06-27T07:35:05.119Z,26.70
2019-06-27T07:36:05.273Z,27.20
2019-06-27T07:37:05.554Z,27.50
2019-06-27T07:38:05.959Z,27.30
2019-06-27T07:39:05.288Z,27.30
2019-06-27T07:40:05.561Z,27.60
2019-06-27T07:41:05.798Z,26.70
2019-06-27T07:42:05.117Z,26.20
2019-06-27T07:43:08.008Z,26.40
2019-06-27T07:44:05.103Z,26.40
2019-06-27T07:45:05.328Z,26.60
2019-06-27T07:46:05.679Z,26.10
2019-06-27T07:47:05.815Z,26.50
2019-06-27T07:48:05.134Z,25.50
2019-06-27T07:49:07.919Z,25.80
2019-06-27T07:50:11.030Z,25.60
2019-06-27T07:51:07.749Z,26.30
2019-06-27T07:52:05.777Z,26.30
2019-06-27T07:53:08.371Z,25.60
2019-06-27T07:54:05.320Z,25.60
2019-06-27T07:55:05.588Z,25.70
2019-06-27T07:56:08.212Z,25.00
2019-06-27T07:57:05.331Z,25.00
2019-06-27T07:58:05.662Z,24.90
2019-06-27T07:59:05.827Z,25.40
2019-06-27T08:00:06.133Z,25.60
2019-06-27T08:01:05.288Z,25.40
2019-06-27T08:02:05.417Z,25.50
2019-06-27T08:03:05.544Z,25.60
2019-06-27T08:04:05.735Z,25.70
2019-06-27T08:05:08.523Z,25.20
2019-06-27T08:06:05.640Z,25.00
2019-06-27T08:07:05.820Z,24.90
2019-06-27T08:08:05.963Z,24.90
2019-06-27T08:09:05.154Z,24.90
2019-06-27T08:10:07.625Z,24.00
2019-06-27T08:11:05.634Z,24.00
2019-06-27T08:12:05.710Z,24.20
2019-06-27T08:13:05.869Z,23.20
2019-06-27T08:14:05.094Z,23.90
2019-06-27T08:15:05.406Z,23.80
2019-06-27T08:16:08.126Z,25.10
2019-06-27T08:17:05.213Z,25.20
2019-06-27T08:18:05.633Z,25.50
2019-06-27T08:19:05.810Z,25.00
2019-06-27T08:20:10.967Z,25.20
2019-06-27T08:21:11.023Z,26.50
2019-06-27T08:22:05.005Z,26.40
2019-06-27T08:23:07.682Z,25.00
2019-06-27T08:24:08.191Z,25.20
2019-06-27T08:25:05.156Z,25.30
2019-06-27T08:26:05.484Z,24.80
2019-06-27T08:27:05.773Z,24.50
2019-06-27T08:28:07.507Z,25.20
2019-06-27T08:29:05.489Z,25.10
2019-06-27T08:30:08.945Z,25.60
2019-06-27T08:31:05.110Z,25.80
2019-06-27T08:32:05.222Z,25.20
2019-06-27T08:33:05.250Z,25.80
2019-06-27T08:34:05.329Z,26.10
2019-06-27T08:35:08.070Z,25.80
2019-06-27T08:36:05.034Z,25.80
2019-06-27T08:37:07.654Z,25.20
2019-06-27T08:38:08.238Z,25.00
2019-06-27T08:39:07.846Z,25.40
2019-06-27T08:40:05.879Z,25.50
2019-06-27T08:41:05.176Z,25.50
2019-06-27T08:42:05.309Z,25.60
2019-06-27T08:43:05.508Z,25.10
2019-06-27T08:44:05.652Z,25.50
2019-06-27T08:45:05.761Z,25.20
2019-06-27T08:46:06.084Z,25.30
2019-06-27T08:47:10.262Z,24.30
2019-06-27T08:48:05.361Z,24.30
2019-06-27T08:49:05.805Z,24.10
2019-06-27T08:50:05.098Z,24.60
2019-06-27T08:51:05.314Z,24.50
2019-06-27T08:52:05.417Z,24.90
2019-06-27T08:53:08.049Z,25.20
2019-06-27T08:54:05.012Z,25.20
2019-06-27T08:55:07.783Z,25.20
2019-06-27T08:56:08.454Z,24.70
2019-06-27T08:57:05.620Z,24.70
2019-06-27T08:58:05.891Z,25.60
2019-06-27T08:59:07.739Z,25.30
2019-06-27T09:00:13.443Z,25.10
2019-06-27T09:01:07.934Z,25.00
2019-06-27T09:02:13.559Z,25.00
2019-06-27T09:03:08.128Z,24.60
2019-06-27T09:04:05.145Z,24.50
2019-06-27T09:05:05.235Z,23.60
2019-06-27T09:06:05.416Z,23.80
2019-06-27T09:07:05.510Z,24.00
2019-06-27T09:08:05.645Z,23.60
2019-06-27T09:09:05.903Z,23.80
2019-06-27T09:10:05.151Z,24.10
2019-06-27T09:11:05.459Z,23.80
2019-06-27T09:12:08.096Z,24.60
2019-06-27T09:13:07.752Z,25.20
2019-06-27T09:14:05.826Z,25.20
2019-06-27T09:15:06.058Z,25.00
2019-06-27T09:16:07.743Z,23.40
2019-06-27T09:17:08.356Z,24.30
2019-06-27T09:18:07.813Z,23.90
2019-06-27T09:19:05.807Z,23.80
2019-06-27T09:20:06.054Z,23.80
2019-06-27T09:21:07.780Z,24.40
2019-06-27T09:22:05.909Z,24.40
2019-06-27T09:23:05.298Z,24.10
2019-06-27T09:24:05.379Z,24.10
2019-06-27T09:25:05.530Z,24.70
2019-06-27T09:26:08.318Z,23.70
2019-06-27T09:27:05.312Z,23.60
2019-06-27T09:28:05.598Z,23.30
2019-06-27T09:29:08.293Z,22.20
2019-06-27T09:30:05.288Z,22.20
2019-06-27T09:31:10.653Z,21.50
2019-06-27T09:32:25.723Z,20.90
2019-06-27T09:33:05.244Z,20.90
2019-06-27T09:34:08.003Z,21.10
2019-06-27T09:35:05.039Z,20.80
2019-06-27T09:36:05.328Z,21.70
2019-06-27T09:37:05.563Z,21.60
2019-06-27T09:38:05.663Z,21.80
2019-06-27T09:39:08.310Z,22.30
2019-06-27T09:40:05.570Z,22.30
2019-06-27T09:41:08.282Z,20.20
2019-06-27T09:42:05.259Z,20.20
2019-06-27T09:43:07.820Z,20.60
2019-06-27T09:44:05.855Z,20.60
2019-06-27T09:45:12.767Z,20.00
2019-06-27T09:46:08.431Z,19.40
2019-06-27T09:47:07.932Z,19.90
2019-06-27T09:48:08.472Z,20.60
2019-06-27T09:49:08.101Z,20.50
2019-06-27T09:50:05.118Z,20.50
2019-06-27T09:51:07.753Z,18.60
2019-06-27T09:52:05.739Z,18.60
2019-06-27T09:53:10.982Z,18.60
2019-06-27T09:54:05.009Z,18.60
2019-06-27T09:55:10.247Z,18.00
2019-06-27T09:56:05.409Z,18.10
2019-06-27T09:57:05.583Z,18.50
2019-06-27T09:58:05.695Z,18.30
2019-06-27T09:59:05.800Z,18.80
2019-06-27T10:00:05.039Z,19.00
2019-06-27T10:01:06.578Z,18.80
2019-06-27T10:02:08.158Z,18.30
2019-06-27T10:03:07.646Z,18.60
2019-06-27T10:04:05.676Z,18.50
2019-06-27T10:05:05.870Z,18.60
2019-06-27T10:06:05.246Z,18.60
2019-06-27T10:07:05.364Z,19.00
2019-06-27T10:08:05.594Z,18.40
2019-06-27T10:09:05.797Z,17.70
2019-06-27T10:10:05.071Z,17.50
2019-06-27T10:11:07.755Z,17.90
2019-06-27T10:12:08.365Z,17.90
2019-06-27T10:13:08.111Z,18.40
2019-06-27T10:14:05.052Z,18.40
2019-06-27T10:15:07.666Z,17.90
2019-06-27T10:16:08.276Z,17.70
2019-06-27T10:17:07.791Z,17.60
2019-06-27T10:18:08.509Z,18.00
2019-06-27T10:19:05.421Z,18.00
2019-06-27T10:20:05.521Z,18.00
2019-06-27T10:21:08.287Z,18.00
2019-06-27T10:22:05.356Z,18.00
2019-06-27T10:23:05.699Z,17.90
2019-06-27T10:24:08.494Z,16.60
2019-06-27T10:25:05.476Z,16.60
2019-06-27T10:26:05.625Z,17.20
2019-06-27T10:27:05.786Z,16.50
2019-06-27T10:28:08.595Z,17.50
2019-06-27T10:29:08.221Z,18.20
2019-06-27T10:30:05.358Z,18.20
2019-06-27T10:31:07.957Z,19.00
2019-06-27T10:32:05.099Z,19.00
2019-06-27T10:33:07.828Z,19.70
2019-06-27T10:34:08.349Z,20.10
2019-06-27T10:35:07.872Z,19.10
2019-06-27T10:36:08.570Z,19.00
2019-06-27T10:37:05.847Z,19.10
2019-06-27T10:38:07.719Z,19.30
2019-06-27T10:39:08.298Z,19.50
2019-06-27T10:40:05.352Z,19.50
2019-06-27T10:41:05.516Z,18.60
2019-06-27T10:42:05.613Z,18.00
2019-06-27T10:43:05.707Z,18.70
2019-06-27T10:44:05.934Z,19.50
2019-06-27T10:45:07.863Z,18.00
2019-06-27T10:46:08.394Z,18.60
2019-06-27T10:47:07.989Z,18.70
2019-06-27T10:48:07.489Z,18.10
2019-06-27T10:49:10.559Z,17.40
2019-06-27T10:50:05.557Z,17.40
2019-06-27T10:51:05.687Z,17.70
2019-06-27T10:52:05.846Z,18.20
2019-06-27T10:53:06.047Z,17.80
2019-06-27T10:54:05.075Z,17.00
2019-06-27T10:55:05.207Z,15.90
2019-06-27T10:56:05.453Z,16.60
2019-06-27T10:57:05.781Z,17.00
2019-06-27T10:58:06.107Z,17.40
2019-06-27T10:59:07.899Z,17.80
2019-06-27T11:00:06.184Z,17.80
2019-06-27T11:01:05.429Z,17.50
2019-06-27T11:02:05.618Z,17.80
2019-06-27T11:03:16.639Z,18.00
2019-06-27T11:04:05.169Z,18.10
2019-06-27T11:05:07.885Z,18.00
2019-06-27T11:06:05.824Z,18.00
2019-06-27T11:07:08.461Z,17.60
2019-06-27T11:08:08.018Z,17.70
2019-06-27T11:09:07.530Z,17.40
2019-06-27T11:10:05.544Z,17.40
2019-06-27T11:11:08.338Z,16.60
2019-06-27T11:12:05.527Z,16.60
2019-06-27T11:13:05.725Z,17.00
2019-06-27T11:14:05.883Z,17.00
2019-06-27T11:15:10.217Z,16.80
2019-06-27T11:16:05.375Z,16.90
2019-06-27T11:17:08.091Z,16.90
2019-06-27T11:18:05.314Z,17.00
2019-06-27T11:19:05.666Z,17.10
2019-06-27T11:20:06.295Z,17.60
2019-06-27T11:21:05.548Z,17.60
2019-06-27T11:22:05.708Z,15.90
2019-06-27T11:23:05.933Z,16.40
2019-06-27T11:24:05.108Z,15.50
2019-06-27T11:25:05.451Z,14.70
2019-06-27T11:26:09.731Z,14.00
2019-06-27T11:27:05.926Z,13.70
2019-06-27T11:28:10.718Z,14.50
2019-06-27T11:29:05.866Z,14.40
2019-06-27T11:30:07.544Z,15.00
2019-06-27T11:31:05.638Z,15.00
2019-06-27T11:32:08.397Z,14.40
2019-06-27T11:33:05.392Z,14.40
2019-06-27T11:34:05.511Z,14.70
2019-06-27T11:35:05.852Z,14.90
2019-06-27T11:36:05.089Z,15.20
2019-06-27T11:37:05.568Z,14.90
2019-06-27T11:38:05.858Z,13.90
2019-06-27T11:39:07.531Z,12.60
2019-06-27T11:40:05.514Z,12.60
2019-06-27T11:41:05.628Z,13.00
2019-06-27T11:42:05.811Z,12.90
2019-06-27T11:43:06.001Z,12.00
2019-06-27T11:44:05.277Z,12.40
2019-06-27T11:45:05.612Z,12.60
2019-06-27T11:46:09.108Z,13.20
2019-06-27T11:47:07.742Z,13.90
2019-06-27T11:48:05.881Z,13.90
2019-06-27T11:49:05.095Z,13.10
2019-06-27T11:50:05.408Z,13.20
2019-06-27T11:51:08.053Z,13.80
2019-06-27T11:52:07.700Z,13.40
2019-06-27T11:53:05.897Z,13.30
2019-06-27T11:54:07.809Z,12.90
2019-06-27T11:55:06.143Z,12.60
2019-06-27T11:56:05.364Z,12.60
2019-06-27T11:57:05.723Z,12.90
2019-06-27T11:58:05.969Z,12.30
2019-06-27T11:59:07.633Z,12.90
2019-06-27T12:00:05.712Z,12.90
2019-06-27T12:01:08.312Z,11.30
2019-06-27T12:02:05.442Z,11.40
2019-06-27T12:03:05.811Z,12.20
2019-06-27T12:04:08.479Z,13.30
2019-06-27T12:05:05.480Z,13.30
2019-06-27T12:06:05.712Z,13.50
2019-06-27T12:07:05.843Z,13.40
2019-06-27T12:08:11.289Z,12.90
2019-06-27T12:09:05.385Z,12.90
2019-06-27T12:10:13.276Z,12.30
2019-06-27T12:11:05.394Z,12.30
2019-06-27T12:12:08.142Z,13.00
2019-06-27T12:13:05.200Z,13.10
2019-06-27T12:14:05.372Z,12.70
2019-06-27T12:15:05.691Z,12.60
2019-06-27T12:16:05.871Z,12.80
2019-06-27T12:17:05.088Z,13.50
2019-06-27T12:18:05.258Z,13.50
2019-06-27T12:19:08.353Z,13.50
2019-06-27T12:20:05.457Z,13.50
2019-06-27T12:21:10.858Z,12.80
2019-06-27T12:22:05.278Z,12.80
2019-06-27T12:23:05.395Z,11.80
2019-06-27T12:24:05.587Z,10.90
2019-06-27T12:25:08.375Z,11.60
2019-06-27T12:26:05.440Z,11.60
2019-06-27T12:27:05.514Z,12.00
2019-06-27T12:28:05.607Z,11.70
2019-06-27T12:29:05.761Z,12.30
2019-06-27T12:30:08.544Z,11.80
2019-06-27T12:31:21.259Z,11.80
2019-06-27T12:32:08.105Z,11.50
2019-06-27T12:33:05.118Z,11.50
2019-06-27T12:34:07.912Z,11.60
2019-06-27T12:35:07.615Z,11.90
2019-06-27T12:36:05.771Z,11.70
2019-06-27T12:37:05.354Z,11.40
2019-06-27T12:38:05.643Z,11.20
2019-06-27T12:39:08.306Z,11.40
2019-06-27T12:40:07.734Z,11.60
2019-06-27T12:41:05.673Z,11.50
2019-06-27T12:42:05.778Z,11.50
2019-06-27T12:43:08.599Z,12.30
2019-06-27T12:44:08.063Z,12.20
2019-06-27T12:45:05.140Z,12.30
2019-06-27T12:46:05.406Z,12.60
2019-06-27T12:47:08.071Z,12.50
2019-06-27T12:48:07.926Z,12.60
2019-06-27T12:49:05.021Z,13.00
2019-06-27T12:50:05.192Z,13.00
2019-06-27T12:51:05.273Z,12.90
2019-06-27T12:52:08.272Z,12.90